WATT/KOE METAR and TAF weather

Enter ICAO airport designator
Station Type Date Time Source
WATT METAR 2019/08/18 09:00 UTC NOAA

WATT 180900Z 14013KT 090V170 9999 FEW018 27/17 Q1012 NOSIG


Station Type Date Time Source
WATT Decoded METAR 2019/08/18 09:00 UTC NOAA

Station name not available
Aug 18, 2019 - 05:00 AM EDT / 2019.08.18 0900 UTC
Wind: from the SE (140 degrees) at 15 MPH (13 KT) (direction variable):0
Visibility: greater than 7 mile(s):0
Sky conditions: mostly clear
Temperature: 80 F (27 C)
Dew Point: 62 F (17 C)
Relative Humidity: 54%
Pressure (altimeter): 29.88 in. Hg (1012 hPa)
ob: WATT 180900Z 14013KT 090V170 9999 FEW018 27/17 Q1012 NOSIG
cycle: 9

Station Type Date Time Source
WATT TAF 2019/08/18 06:00 UTC NOAA

TAF WATT 180500Z 1806/1906 14014KT 9999 SCT018
BECMG 1813/1815 12009KT

Example: see airport list